sensor_id;sensor_type;location;lat;lon;timestamp;temperature;humidity
22781;DHT22;11557;50.884;4.322;2023-08-20T00:00:28;22.70;99.90
22781;DHT22;11557;50.884;4.322;2023-08-20T00:02:59;22.80;99.90
22781;DHT22;11557;50.884;4.322;2023-08-20T00:05:29;22.70;99.90
22781;DHT22;11557;50.884;4.322;2023-08-20T00:07:55;22.70;99.90
22781;DHT22;11557;50.884;4.322;2023-08-20T00:10:21;22.60;99.90
22781;DHT22;11557;50.884;4.322;2023-08-20T00:12:47;22.60;99.90
22781;DHT22;11557;50.884;4.322;2023-08-20T00:15:12;22.50;99.90
22781;DHT22;11557;50.884;4.322;2023-08-20T00:17:40;22.40;99.90
22781;DHT22;11557;50.884;4.322;2023-08-20T00:20:08;22.30;99.90
22781;DHT22;11557;50.884;4.322;2023-08-20T00:22:43;22.30;99.90
22781;DHT22;11557;50.884;4.322;2023-08-20T00:25:11;22.30;99.90
22781;DHT22;11557;50.884;4.322;2023-08-20T00:27:38;22.40;99.90
22781;DHT22;11557;50.884;4.322;2023-08-20T00:30:05;22.50;99.90
22781;DHT22;11557;50.884;4.322;2023-08-20T00:32:31;22.50;99.90
22781;DHT22;11557;50.884;4.322;2023-08-20T00:34:57;22.40;99.90
22781;DHT22;11557;50.884;4.322;2023-08-20T00:37:22;22.50;99.90
22781;DHT22;11557;50.884;4.322;2023-08-20T00:39:48;22.50;99.90
22781;DHT22;11557;50.884;4.322;2023-08-20T00:42:14;22.50;99.90
22781;DHT22;11557;50.884;4.322;2023-08-20T00:44:40;22.60;99.90
22781;DHT22;11557;50.884;4.322;2023-08-20T00:47:07;22.60;99.90
22781;DHT22;11557;50.884;4.322;2023-08-20T00:49:34;22.40;99.90
22781;DHT22;11557;50.884;4.322;2023-08-20T00:52:00;22.50;99.90
22781;DHT22;11557;50.884;4.322;2023-08-20T00:54:29;22.50;99.90
22781;DHT22;11557;50.884;4.322;2023-08-20T00:56:55;22.50;99.90
22781;DHT22;11557;50.884;4.322;2023-08-20T00:59:21;22.50;99.90
22781;DHT22;11557;50.884;4.322;2023-08-20T01:01:47;22.40;99.90
22781;DHT22;11557;50.884;4.322;2023-08-20T01:04:12;22.40;99.90
22781;DHT22;11557;50.884;4.322;2023-08-20T01:11:57;22.90;99.90
22781;DHT22;11557;50.884;4.322;2023-08-20T01:14:24;22.90;99.90
22781;DHT22;11557;50.884;4.322;2023-08-20T01:16:50;23.00;99.90
22781;DHT22;11557;50.884;4.322;2023-08-20T01:19:20;23.00;99.90
22781;DHT22;11557;50.884;4.322;2023-08-20T01:27:47;22.60;99.90
22781;DHT22;11557;50.884;4.322;2023-08-20T01:30:15;22.80;99.90
22781;DHT22;11557;50.884;4.322;2023-08-20T01:32:42;22.80;99.90
22781;DHT22;11557;50.884;4.322;2023-08-20T01:35:12;22.80;99.90
22781;DHT22;11557;50.884;4.322;2023-08-20T01:37:41;22.70;99.90
22781;DHT22;11557;50.884;4.322;2023-08-20T01:40:07;22.80;99.90
22781;DHT22;11557;50.884;4.322;2023-08-20T01:42:39;22.70;99.90
22781;DHT22;11557;50.884;4.322;2023-08-20T01:45:06;22.70;99.90
22781;DHT22;11557;50.884;4.322;2023-08-20T01:47:35;22.70;99.90
22781;DHT22;11557;50.884;4.322;2023-08-20T01:50:01;22.80;99.90
22781;DHT22;11557;50.884;4.322;2023-08-20T01:52:28;22.60;99.90
22781;DHT22;11557;50.884;4.322;2023-08-20T01:54:54;22.50;99.90
22781;DHT22;11557;50.884;4.322;2023-08-20T01:57:20;22.60;99.90
22781;DHT22;11557;50.884;4.322;2023-08-20T01:59:47;22.60;99.90
22781;DHT22;11557;50.884;4.322;2023-08-20T02:02:14;22.50;99.90
22781;DHT22;11557;50.884;4.322;2023-08-20T02:04:40;22.50;99.90
22781;DHT22;11557;50.884;4.322;2023-08-20T02:07:06;22.50;99.90
22781;DHT22;11557;50.884;4.322;2023-08-20T02:09:32;22.50;99.90
22781;DHT22;11557;50.884;4.322;2023-08-20T02:11:58;22.30;99.90
22781;DHT22;11557;50.884;4.322;2023-08-20T02:14:24;22.20;99.90
22781;DHT22;11557;50.884;4.322;2023-08-20T02:16:50;22.10;99.90
22781;DHT22;11557;50.884;4.322;2023-08-20T02:19:16;22.10;99.90
22781;DHT22;11557;50.884;4.322;2023-08-20T02:21:43;22.30;99.90
22781;DHT22;11557;50.884;4.322;2023-08-20T02:24:08;22.40;99.90
22781;DHT22;11557;50.884;4.322;2023-08-20T02:26:34;22.40;99.90
22781;DHT22;11557;50.884;4.322;2023-08-20T02:29:00;22.40;99.90
22781;DHT22;11557;50.884;4.322;2023-08-20T02:31:25;22.20;99.90
22781;DHT22;11557;50.884;4.322;2023-08-20T02:33:51;22.20;99.90
22781;DHT22;11557;50.884;4.322;2023-08-20T02:36:17;22.20;99.90
22781;DHT22;11557;50.884;4.322;2023-08-20T02:38:44;22.30;99.90
22781;DHT22;11557;50.884;4.322;2023-08-20T02:41:10;22.30;99.90
22781;DHT22;11557;50.884;4.322;2023-08-20T02:43:35;22.30;99.90
22781;DHT22;11557;50.884;4.322;2023-08-20T02:46:01;22.20;99.90
22781;DHT22;11557;50.884;4.322;2023-08-20T02:48:27;22.10;99.90
22781;DHT22;11557;50.884;4.322;2023-08-20T02:50:54;22.00;99.90
22781;DHT22;11557;50.884;4.322;2023-08-20T02:53:21;21.80;99.90
22781;DHT22;11557;50.884;4.322;2023-08-20T02:55:47;21.90;99.90
22781;DHT22;11557;50.884;4.322;2023-08-20T02:58:13;22.00;99.90
22781;DHT22;11557;50.884;4.322;2023-08-20T03:00:39;22.00;99.90
22781;DHT22;11557;50.884;4.322;2023-08-20T03:03:06;21.90;99.90
22781;DHT22;11557;50.884;4.322;2023-08-20T03:05:34;21.90;99.90
22781;DHT22;11557;50.884;4.322;2023-08-20T03:08:01;21.80;99.90
22781;DHT22;11557;50.884;4.322;2023-08-20T03:10:27;21.80;99.90
22781;DHT22;11557;50.884;4.322;2023-08-20T03:12:53;21.80;99.90
22781;DHT22;11557;50.884;4.322;2023-08-20T03:15:19;21.90;99.90
22781;DHT22;11557;50.884;4.322;2023-08-20T03:17:45;21.90;99.90
22781;DHT22;11557;50.884;4.322;2023-08-20T03:20:11;21.70;99.90
22781;DHT22;11557;50.884;4.322;2023-08-20T03:22:37;21.60;99.90
22781;DHT22;11557;50.884;4.322;2023-08-20T03:25:04;21.60;99.90
22781;DHT22;11557;50.884;4.322;2023-08-20T03:27:30;21.60;99.90
22781;DHT22;11557;50.884;4.322;2023-08-20T03:29:56;21.70;99.90
22781;DHT22;11557;50.884;4.322;2023-08-20T03:32:22;21.80;99.90
22781;DHT22;11557;50.884;4.322;2023-08-20T03:34:48;21.70;99.90
22781;DHT22;11557;50.884;4.322;2023-08-20T03:37:14;21.80;99.90
22781;DHT22;11557;50.884;4.322;2023-08-20T03:39:39;21.70;99.90
22781;DHT22;11557;50.884;4.322;2023-08-20T03:42:05;21.70;99.90
22781;DHT22;11557;50.884;4.322;2023-08-20T03:44:31;21.70;99.90
22781;DHT22;11557;50.884;4.322;2023-08-20T03:46:57;21.80;99.90
22781;DHT22;11557;50.884;4.322;2023-08-20T03:49:22;21.70;99.90
22781;DHT22;11557;50.884;4.322;2023-08-20T03:51:48;21.60;99.90
22781;DHT22;11557;50.884;4.322;2023-08-20T03:54:14;21.60;99.90
22781;DHT22;11557;50.884;4.322;2023-08-20T03:56:40;21.60;99.90
22781;DHT22;11557;50.884;4.322;2023-08-20T03:59:06;21.50;99.90
22781;DHT22;11557;50.884;4.322;2023-08-20T04:01:31;21.50;99.90
22781;DHT22;11557;50.884;4.322;2023-08-20T04:03:57;21.50;99.90
22781;DHT22;11557;50.884;4.322;2023-08-20T04:06:23;21.30;99.90
22781;DHT22;11557;50.884;4.322;2023-08-20T04:08:49;21.30;99.90
22781;DHT22;11557;50.884;4.322;2023-08-20T04:11:15;21.50;99.90
22781;DHT22;11557;50.884;4.322;2023-08-20T04:13:41;21.30;99.90
22781;DHT22;11557;50.884;4.322;2023-08-20T04:16:09;21.40;99.90
22781;DHT22;11557;50.884;4.322;2023-08-20T04:18:35;21.30;99.90
22781;DHT22;11557;50.884;4.322;2023-08-20T04:21:00;21.50;99.90
22781;DHT22;11557;50.884;4.322;2023-08-20T04:23:26;21.50;99.90
22781;DHT22;11557;50.884;4.322;2023-08-20T04:25:52;21.50;99.90
22781;DHT22;11557;50.884;4.322;2023-08-20T04:28:18;21.50;99.90
22781;DHT22;11557;50.884;4.322;2023-08-20T04:30:44;21.40;99.90
22781;DHT22;11557;50.884;4.322;2023-08-20T04:33:10;21.40;99.90
22781;DHT22;11557;50.884;4.322;2023-08-20T04:35:35;21.40;99.90
22781;DHT22;11557;50.884;4.322;2023-08-20T04:38:02;21.40;99.90
22781;DHT22;11557;50.884;4.322;2023-08-20T04:40:28;21.40;99.90
22781;DHT22;11557;50.884;4.322;2023-08-20T04:42:54;21.40;99.90
22781;DHT22;11557;50.884;4.322;2023-08-20T04:45:19;21.50;99.90
22781;DHT22;11557;50.884;4.322;2023-08-20T04:47:48;21.40;99.90
22781;DHT22;11557;50.884;4.322;2023-08-20T04:50:13;21.40;99.90
22781;DHT22;11557;50.884;4.322;2023-08-20T04:52:39;21.50;99.90
22781;DHT22;11557;50.884;4.322;2023-08-20T04:55:05;21.40;99.90
22781;DHT22;11557;50.884;4.322;2023-08-20T04:57:35;21.50;99.90
22781;DHT22;11557;50.884;4.322;2023-08-20T05:00:01;21.40;99.90
22781;DHT22;11557;50.884;4.322;2023-08-20T05:02:26;21.30;99.90
22781;DHT22;11557;50.884;4.322;2023-08-20T05:04:52;21.20;99.90
22781;DHT22;11557;50.884;4.322;2023-08-20T05:07:18;21.20;99.90
22781;DHT22;11557;50.884;4.322;2023-08-20T05:09:44;22.60;99.90
22781;DHT22;11557;50.884;4.322;2023-08-20T05:12:09;21.20;99.90
22781;DHT22;11557;50.884;4.322;2023-08-20T05:14:35;21.30;99.90
22781;DHT22;11557;50.884;4.322;2023-08-20T05:17:01;21.30;99.90
22781;DHT22;11557;50.884;4.322;2023-08-20T05:19:26;21.40;99.90
22781;DHT22;11557;50.884;4.322;2023-08-20T05:21:52;21.40;99.90
22781;DHT22;11557;50.884;4.322;2023-08-20T05:24:24;21.40;99.90
22781;DHT22;11557;50.884;4.322;2023-08-20T05:27:13;21.50;99.90
22781;DHT22;11557;50.884;4.322;2023-08-20T05:29:43;21.30;99.90
22781;DHT22;11557;50.884;4.322;2023-08-20T05:32:08;21.30;99.90
22781;DHT22;11557;50.884;4.322;2023-08-20T05:34:35;21.20;99.90
22781;DHT22;11557;50.884;4.322;2023-08-20T05:37:00;21.30;99.90
22781;DHT22;11557;50.884;4.322;2023-08-20T05:39:26;21.40;99.90
22781;DHT22;11557;50.884;4.322;2023-08-20T05:41:55;21.40;99.90
22781;DHT22;11557;50.884;4.322;2023-08-20T05:44:21;21.30;99.90
22781;DHT22;11557;50.884;4.322;2023-08-20T05:46:47;21.20;99.90
22781;DHT22;11557;50.884;4.322;2023-08-20T05:49:14;21.30;99.90
22781;DHT22;11557;50.884;4.322;2023-08-20T05:51:44;21.50;99.90
22781;DHT22;11557;50.884;4.322;2023-08-20T05:54:10;21.40;99.90
22781;DHT22;11557;50.884;4.322;2023-08-20T05:56:37;21.40;99.90
22781;DHT22;11557;50.884;4.322;2023-08-20T05:59:03;21.40;99.90
22781;DHT22;11557;50.884;4.322;2023-08-20T06:01:28;21.30;99.90
22781;DHT22;11557;50.884;4.322;2023-08-20T06:03:54;21.30;99.90
22781;DHT22;11557;50.884;4.322;2023-08-20T06:06:21;21.40;99.90
22781;DHT22;11557;50.884;4.322;2023-08-20T06:08:47;21.40;99.90
22781;DHT22;11557;50.884;4.322;2023-08-20T06:11:12;21.50;99.90
22781;DHT22;11557;50.884;4.322;2023-08-20T06:13:38;21.50;99.90
22781;DHT22;11557;50.884;4.322;2023-08-20T06:16:04;21.50;99.90
22781;DHT22;11557;50.884;4.322;2023-08-20T06:18:30;21.60;99.90
22781;DHT22;11557;50.884;4.322;2023-08-20T06:20:55;21.40;99.90
22781;DHT22;11557;50.884;4.322;2023-08-20T06:23:21;21.50;99.90
22781;DHT22;11557;50.884;4.322;2023-08-20T06:25:47;21.50;99.90
22781;DHT22;11557;50.884;4.322;2023-08-20T06:28:12;21.50;99.90
22781;DHT22;11557;50.884;4.322;2023-08-20T06:30:38;21.50;99.90
22781;DHT22;11557;50.884;4.322;2023-08-20T06:33:04;21.40;99.90
22781;DHT22;11557;50.884;4.322;2023-08-20T06:35:29;21.30;99.90
22781;DHT22;11557;50.884;4.322;2023-08-20T06:37:55;21.30;99.90
22781;DHT22;11557;50.884;4.322;2023-08-20T06:40:21;21.40;99.90
22781;DHT22;11557;50.884;4.322;2023-08-20T06:42:46;21.50;99.90
22781;DHT22;11557;50.884;4.322;2023-08-20T06:45:12;21.60;99.90
22781;DHT22;11557;50.884;4.322;2023-08-20T06:47:37;21.50;99.90
22781;DHT22;11557;50.884;4.322;2023-08-20T06:50:04;21.40;99.90
22781;DHT22;11557;50.884;4.322;2023-08-20T06:52:32;21.20;99.90
22781;DHT22;11557;50.884;4.322;2023-08-20T06:55:03;21.20;99.90
22781;DHT22;11557;50.884;4.322;2023-08-20T06:57:29;21.20;99.90
22781;DHT22;11557;50.884;4.322;2023-08-20T06:59:55;21.30;99.90
22781;DHT22;11557;50.884;4.322;2023-08-20T07:02:23;21.30;99.90
22781;DHT22;11557;50.884;4.322;2023-08-20T07:04:48;21.40;99.90
22781;DHT22;11557;50.884;4.322;2023-08-20T07:07:14;21.50;99.90
22781;DHT22;11557;50.884;4.322;2023-08-20T07:09:40;21.50;99.90
22781;DHT22;11557;50.884;4.322;2023-08-20T07:12:07;21.70;99.90
22781;DHT22;11557;50.884;4.322;2023-08-20T07:14:33;21.80;99.90
22781;DHT22;11557;50.884;4.322;2023-08-20T07:16:59;21.70;99.90
22781;DHT22;11557;50.884;4.322;2023-08-20T07:19:26;21.50;99.90
22781;DHT22;11557;50.884;4.322;2023-08-20T07:21:51;21.50;99.90
22781;DHT22;11557;50.884;4.322;2023-08-20T07:24:17;21.60;99.90
22781;DHT22;11557;50.884;4.322;2023-08-20T07:26:43;21.70;99.90
22781;DHT22;11557;50.884;4.322;2023-08-20T07:29:09;21.80;99.90
22781;DHT22;11557;50.884;4.322;2023-08-20T07:31:35;22.00;99.90
22781;DHT22;11557;50.884;4.322;2023-08-20T07:34:02;21.90;99.90
22781;DHT22;11557;50.884;4.322;2023-08-20T07:36:29;22.00;99.90
22781;DHT22;11557;50.884;4.322;2023-08-20T07:38:55;22.10;99.90
22781;DHT22;11557;50.884;4.322;2023-08-20T07:41:21;22.30;99.90
22781;DHT22;11557;50.884;4.322;2023-08-20T07:43:47;22.30;99.90
22781;DHT22;11557;50.884;4.322;2023-08-20T07:46:13;22.50;99.90
22781;DHT22;11557;50.884;4.322;2023-08-20T07:48:39;22.70;99.90
22781;DHT22;11557;50.884;4.322;2023-08-20T07:51:05;22.80;99.90
22781;DHT22;11557;50.884;4.322;2023-08-20T07:53:32;22.70;99.90
22781;DHT22;11557;50.884;4.322;2023-08-20T07:55:58;22.90;99.90
22781;DHT22;11557;50.884;4.322;2023-08-20T07:58:24;22.90;99.90
22781;DHT22;11557;50.884;4.322;2023-08-20T08:00:50;23.00;99.90
22781;DHT22;11557;50.884;4.322;2023-08-20T08:03:16;22.90;99.90
22781;DHT22;11557;50.884;4.322;2023-08-20T08:05:49;23.00;99.90
22781;DHT22;11557;50.884;4.322;2023-08-20T08:08:18;23.00;99.90
22781;DHT22;11557;50.884;4.322;2023-08-20T08:10:45;23.10;99.90
22781;DHT22;11557;50.884;4.322;2023-08-20T08:13:17;23.20;99.90
22781;DHT22;11557;50.884;4.322;2023-08-20T08:15:43;23.20;99.90
22781;DHT22;11557;50.884;4.322;2023-08-20T08:18:08;23.30;99.90
22781;DHT22;11557;50.884;4.322;2023-08-20T08:20:34;23.40;99.90
22781;DHT22;11557;50.884;4.322;2023-08-20T08:23:00;24.50;99.90
22781;DHT22;11557;50.884;4.322;2023-08-20T08:25:26;27.30;99.90
22781;DHT22;11557;50.884;4.322;2023-08-20T08:27:52;30.60;99.90
22781;DHT22;11557;50.884;4.322;2023-08-20T08:30:18;33.30;99.90
22781;DHT22;11557;50.884;4.322;2023-08-20T08:32:45;35.60;99.90
22781;DHT22;11557;50.884;4.322;2023-08-20T08:35:10;37.40;99.90
22781;DHT22;11557;50.884;4.322;2023-08-20T08:37:37;38.50;99.90
22781;DHT22;11557;50.884;4.322;2023-08-20T08:40:03;39.60;99.90
22781;DHT22;11557;50.884;4.322;2023-08-20T08:42:35;40.70;99.90
22781;DHT22;11557;50.884;4.322;2023-08-20T08:45:04;41.40;99.90
22781;DHT22;11557;50.884;4.322;2023-08-20T08:47:30;41.80;99.20
22781;DHT22;11557;50.884;4.322;2023-08-20T08:49:56;42.10;97.70
22781;DHT22;11557;50.884;4.322;2023-08-20T08:52:26;42.00;97.10
22781;DHT22;11557;50.884;4.322;2023-08-20T08:54:52;42.10;95.10
22781;DHT22;11557;50.884;4.322;2023-08-20T08:57:18;42.60;96.20
22781;DHT22;11557;50.884;4.322;2023-08-20T08:59:44;43.00;95.70
22781;DHT22;11557;50.884;4.322;2023-08-20T09:02:10;43.30;94.20
22781;DHT22;11557;50.884;4.322;2023-08-20T09:04:40;43.60;92.10
22781;DHT22;11557;50.884;4.322;2023-08-20T09:07:14;43.70;91.40
22781;DHT22;11557;50.884;4.322;2023-08-20T09:09:43;43.70;92.20
22781;DHT22;11557;50.884;4.322;2023-08-20T09:12:19;43.50;92.70
22781;DHT22;11557;50.884;4.322;2023-08-20T09:14:47;43.40;83.10
22781;DHT22;11557;50.884;4.322;2023-08-20T09:17:13;43.10;84.30
22781;DHT22;11557;50.884;4.322;2023-08-20T09:19:39;42.90;84.00
22781;DHT22;11557;50.884;4.322;2023-08-20T09:22:07;42.30;83.20
22781;DHT22;11557;50.884;4.322;2023-08-20T09:24:45;42.60;87.10
22781;DHT22;11557;50.884;4.322;2023-08-20T09:27:14;42.60;87.40
22781;DHT22;11557;50.884;4.322;2023-08-20T09:29:45;42.30;87.10
22781;DHT22;11557;50.884;4.322;2023-08-20T09:32:15;42.40;90.00
22781;DHT22;11557;50.884;4.322;2023-08-20T09:34:40;42.50;89.00
22781;DHT22;11557;50.884;4.322;2023-08-20T09:37:14;42.60;91.10
22781;DHT22;11557;50.884;4.322;2023-08-20T09:39:40;42.50;84.80
22781;DHT22;11557;50.884;4.322;2023-08-20T09:42:08;41.90;80.80
22781;DHT22;11557;50.884;4.322;2023-08-20T09:44:35;41.60;85.80
22781;DHT22;11557;50.884;4.322;2023-08-20T09:47:22;41.20;86.00
22781;DHT22;11557;50.884;4.322;2023-08-20T09:49:50;40.70;86.70
22781;DHT22;11557;50.884;4.322;2023-08-20T09:52:39;39.80;84.60
22781;DHT22;11557;50.884;4.322;2023-08-20T09:55:20;39.40;85.60
22781;DHT22;11557;50.884;4.322;2023-08-20T09:57:47;39.50;88.30
22781;DHT22;11557;50.884;4.322;2023-08-20T10:00:13;39.00;88.00
22781;DHT22;11557;50.884;4.322;2023-08-20T10:02:40;38.40;87.00
22781;DHT22;11557;50.884;4.322;2023-08-20T10:05:07;37.70;86.40
22781;DHT22;11557;50.884;4.322;2023-08-20T10:07:34;36.40;88.80
22781;DHT22;11557;50.884;4.322;2023-08-20T10:10:07;36.20;92.70
22781;DHT22;11557;50.884;4.322;2023-08-20T10:12:35;35.90;91.10
22781;DHT22;11557;50.884;4.322;2023-08-20T10:15:01;36.00;92.40
22781;DHT22;11557;50.884;4.322;2023-08-20T10:17:32;35.80;91.90
22781;DHT22;11557;50.884;4.322;2023-08-20T10:19:59;35.40;90.70
22781;DHT22;11557;50.884;4.322;2023-08-20T10:22:41;34.90;91.00
22781;DHT22;11557;50.884;4.322;2023-08-20T10:25:09;34.30;91.40
22781;DHT22;11557;50.884;4.322;2023-08-20T10:27:37;33.60;93.70
22781;DHT22;11557;50.884;4.322;2023-08-20T10:30:23;33.50;94.70
22781;DHT22;11557;50.884;4.322;2023-08-20T10:32:56;33.80;99.20
22781;DHT22;11557;50.884;4.322;2023-08-20T10:35:50;34.10;97.90
22781;DHT22;11557;50.884;4.322;2023-08-20T10:38:16;34.20;96.10
22781;DHT22;11557;50.884;4.322;2023-08-20T10:40:48;34.00;96.80
22781;DHT22;11557;50.884;4.322;2023-08-20T10:43:35;33.80;95.60
22781;DHT22;11557;50.884;4.322;2023-08-20T10:48:33;33.70;97.70
22781;DHT22;11557;50.884;4.322;2023-08-20T10:51:09;33.70;98.80
22781;DHT22;11557;50.884;4.322;2023-08-20T10:53:35;33.40;97.40
22781;DHT22;11557;50.884;4.322;2023-08-20T10:56:37;33.40;99.00
22781;DHT22;11557;50.884;4.322;2023-08-20T10:59:25;33.60;99.90
22781;DHT22;11557;50.884;4.322;2023-08-20T11:01:54;33.40;97.20
22781;DHT22;11557;50.884;4.322;2023-08-20T11:04:22;33.60;99.80
22781;DHT22;11557;50.884;4.322;2023-08-20T11:06:55;33.50;99.50
22781;DHT22;11557;50.884;4.322;2023-08-20T11:09:27;33.60;99.90
22781;DHT22;11557;50.884;4.322;2023-08-20T11:11:53;33.60;99.90
22781;DHT22;11557;50.884;4.322;2023-08-20T11:14:20;33.80;99.90
22781;DHT22;11557;50.884;4.322;2023-08-20T11:16:47;33.60;99.90
22781;DHT22;11557;50.884;4.322;2023-08-20T11:19:15;33.60;99.90
22781;DHT22;11557;50.884;4.322;2023-08-20T11:21:44;33.70;99.90
22781;DHT22;11557;50.884;4.322;2023-08-20T11:24:10;33.90;99.90
22781;DHT22;11557;50.884;4.322;2023-08-20T11:26:40;33.90;99.80
22781;DHT22;11557;50.884;4.322;2023-08-20T11:29:11;34.10;99.70
22781;DHT22;11557;50.884;4.322;2023-08-20T11:31:45;34.00;97.90
22781;DHT22;11557;50.884;4.322;2023-08-20T11:34:12;34.00;99.90
22781;DHT22;11557;50.884;4.322;2023-08-20T11:36:38;34.00;99.90
22781;DHT22;11557;50.884;4.322;2023-08-20T11:39:05;33.80;99.90
22781;DHT22;11557;50.884;4.322;2023-08-20T11:41:32;33.70;99.00
22781;DHT22;11557;50.884;4.322;2023-08-20T11:44:00;33.70;99.90
22781;DHT22;11557;50.884;4.322;2023-08-20T11:46:26;33.60;99.90
22781;DHT22;11557;50.884;4.322;2023-08-20T11:49:06;33.70;99.90
22781;DHT22;11557;50.884;4.322;2023-08-20T11:51:42;33.90;99.90
22781;DHT22;11557;50.884;4.322;2023-08-20T11:54:11;33.90;99.90
22781;DHT22;11557;50.884;4.322;2023-08-20T11:56:49;33.90;99.10
22781;DHT22;11557;50.884;4.322;2023-08-20T11:59:16;34.00;99.90
22781;DHT22;11557;50.884;4.322;2023-08-20T12:01:42;34.10;99.90
22781;DHT22;11557;50.884;4.322;2023-08-20T12:04:09;33.80;99.90
22781;DHT22;11557;50.884;4.322;2023-08-20T12:06:36;33.90;99.90
22781;DHT22;11557;50.884;4.322;2023-08-20T12:09:18;33.90;99.90
22781;DHT22;11557;50.884;4.322;2023-08-20T12:11:52;33.80;99.70
22781;DHT22;11557;50.884;4.322;2023-08-20T12:14:20;33.70;99.90
22781;DHT22;11557;50.884;4.322;2023-08-20T12:16:46;33.90;99.90
22781;DHT22;11557;50.884;4.322;2023-08-20T12:19:12;34.00;98.40
22781;DHT22;11557;50.884;4.322;2023-08-20T12:21:39;34.00;99.90
22781;DHT22;11557;50.884;4.322;2023-08-20T12:24:06;33.90;98.70
22781;DHT22;11557;50.884;4.322;2023-08-20T12:26:32;33.90;96.60
22781;DHT22;11557;50.884;4.322;2023-08-20T12:28:58;33.80;99.90
22781;DHT22;11557;50.884;4.322;2023-08-20T12:31:24;33.80;99.90
22781;DHT22;11557;50.884;4.322;2023-08-20T12:33:49;33.70;99.10
22781;DHT22;11557;50.884;4.322;2023-08-20T12:36:15;33.20;97.80
22781;DHT22;11557;50.884;4.322;2023-08-20T12:38:41;33.10;99.90
22781;DHT22;11557;50.884;4.322;2023-08-20T12:41:07;32.90;99.90
22781;DHT22;11557;50.884;4.322;2023-08-20T12:43:33;32.50;99.90
22781;DHT22;11557;50.884;4.322;2023-08-20T12:45:58;32.60;99.90
22781;DHT22;11557;50.884;4.322;2023-08-20T12:48:24;32.70;99.90
22781;DHT22;11557;50.884;4.322;2023-08-20T12:50:50;32.60;99.40
22781;DHT22;11557;50.884;4.322;2023-08-20T12:53:15;32.90;99.90
22781;DHT22;11557;50.884;4.322;2023-08-20T12:55:41;32.90;99.90
22781;DHT22;11557;50.884;4.322;2023-08-20T12:58:06;32.80;99.90
22781;DHT22;11557;50.884;4.322;2023-08-20T13:00:33;32.80;99.90
22781;DHT22;11557;50.884;4.322;2023-08-20T13:02:59;32.70;99.90
22781;DHT22;11557;50.884;4.322;2023-08-20T13:05:25;32.70;99.90
22781;DHT22;11557;50.884;4.322;2023-08-20T13:07:52;32.70;99.90
22781;DHT22;11557;50.884;4.322;2023-08-20T13:10:18;32.80;99.90
22781;DHT22;11557;50.884;4.322;2023-08-20T13:12:48;32.90;99.90
22781;DHT22;11557;50.884;4.322;2023-08-20T13:15:16;33.10;99.90
22781;DHT22;11557;50.884;4.322;2023-08-20T13:17:42;33.00;99.50
22781;DHT22;11557;50.884;4.322;2023-08-20T13:20:08;32.80;99.90
22781;DHT22;11557;50.884;4.322;2023-08-20T13:22:35;32.90;99.90
22781;DHT22;11557;50.884;4.322;2023-08-20T13:25:00;32.60;99.90
22781;DHT22;11557;50.884;4.322;2023-08-20T13:27:26;32.30;99.90
22781;DHT22;11557;50.884;4.322;2023-08-20T13:29:52;31.90;99.90
22781;DHT22;11557;50.884;4.322;2023-08-20T13:32:17;31.60;99.90
22781;DHT22;11557;50.884;4.322;2023-08-20T13:34:43;31.40;99.90
22781;DHT22;11557;50.884;4.322;2023-08-20T13:37:09;31.30;99.90
22781;DHT22;11557;50.884;4.322;2023-08-20T13:39:34;31.20;99.90
22781;DHT22;11557;50.884;4.322;2023-08-20T13:42:00;31.10;99.90
22781;DHT22;11557;50.884;4.322;2023-08-20T13:44:25;31.00;99.90
22781;DHT22;11557;50.884;4.322;2023-08-20T13:46:51;30.90;99.90
22781;DHT22;11557;50.884;4.322;2023-08-20T13:49:17;31.20;99.90
22781;DHT22;11557;50.884;4.322;2023-08-20T13:51:45;31.10;99.90
22781;DHT22;11557;50.884;4.322;2023-08-20T13:54:11;31.00;99.90
22781;DHT22;11557;50.884;4.322;2023-08-20T13:56:37;30.90;99.90
22781;DHT22;11557;50.884;4.322;2023-08-20T13:59:02;30.90;99.90
22781;DHT22;11557;50.884;4.322;2023-08-20T14:01:28;31.10;99.90
22781;DHT22;11557;50.884;4.322;2023-08-20T14:03:55;31.00;99.90
22781;DHT22;11557;50.884;4.322;2023-08-20T14:06:20;31.00;99.90
22781;DHT22;11557;50.884;4.322;2023-08-20T14:08:46;30.90;99.90
22781;DHT22;11557;50.884;4.322;2023-08-20T14:11:12;30.90;99.90
22781;DHT22;11557;50.884;4.322;2023-08-20T14:13:38;30.60;99.90
22781;DHT22;11557;50.884;4.322;2023-08-20T14:16:03;30.40;99.90
22781;DHT22;11557;50.884;4.322;2023-08-20T14:18:29;30.30;99.90
22781;DHT22;11557;50.884;4.322;2023-08-20T14:20:55;29.90;99.90
22781;DHT22;11557;50.884;4.322;2023-08-20T14:23:20;29.90;99.90
22781;DHT22;11557;50.884;4.322;2023-08-20T14:25:46;29.80;99.90
22781;DHT22;11557;50.884;4.322;2023-08-20T14:28:12;29.80;99.90
22781;DHT22;11557;50.884;4.322;2023-08-20T14:30:38;29.90;99.90
22781;DHT22;11557;50.884;4.322;2023-08-20T14:33:05;29.80;99.90
22781;DHT22;11557;50.884;4.322;2023-08-20T14:35:31;29.60;99.90
22781;DHT22;11557;50.884;4.322;2023-08-20T14:37:57;29.60;99.90
22781;DHT22;11557;50.884;4.322;2023-08-20T14:40:23;29.80;99.90
22781;DHT22;11557;50.884;4.322;2023-08-20T14:42:49;30.00;99.90
22781;DHT22;11557;50.884;4.322;2023-08-20T14:45:15;30.20;99.90
22781;DHT22;11557;50.884;4.322;2023-08-20T14:47:40;30.10;99.90
22781;DHT22;11557;50.884;4.322;2023-08-20T14:50:07;29.90;99.90
22781;DHT22;11557;50.884;4.322;2023-08-20T14:52:33;29.60;99.90
22781;DHT22;11557;50.884;4.322;2023-08-20T14:54:59;29.40;99.90
22781;DHT22;11557;50.884;4.322;2023-08-20T14:57:25;29.30;99.90
22781;DHT22;11557;50.884;4.322;2023-08-20T14:59:51;29.30;99.90
22781;DHT22;11557;50.884;4.322;2023-08-20T15:02:16;29.30;99.90
22781;DHT22;11557;50.884;4.322;2023-08-20T15:04:42;29.00;99.90
22781;DHT22;11557;50.884;4.322;2023-08-20T15:07:08;28.80;99.90
22781;DHT22;11557;50.884;4.322;2023-08-20T15:09:34;28.90;99.90
22781;DHT22;11557;50.884;4.322;2023-08-20T15:12:01;29.20;99.90
22781;DHT22;11557;50.884;4.322;2023-08-20T15:14:27;29.30;99.90
22781;DHT22;11557;50.884;4.322;2023-08-20T15:16:53;29.60;99.90
22781;DHT22;11557;50.884;4.322;2023-08-20T15:19:19;29.70;99.90
22781;DHT22;11557;50.884;4.322;2023-08-20T15:21:44;29.80;99.90
22781;DHT22;11557;50.884;4.322;2023-08-20T15:24:10;29.80;99.90
22781;DHT22;11557;50.884;4.322;2023-08-20T15:26:36;29.80;99.90
22781;DHT22;11557;50.884;4.322;2023-08-20T15:29:02;29.90;99.90
22781;DHT22;11557;50.884;4.322;2023-08-20T15:31:28;29.90;99.90
22781;DHT22;11557;50.884;4.322;2023-08-20T15:33:54;30.00;99.90
22781;DHT22;11557;50.884;4.322;2023-08-20T15:36:20;30.00;99.90
22781;DHT22;11557;50.884;4.322;2023-08-20T15:38:46;30.00;99.90
22781;DHT22;11557;50.884;4.322;2023-08-20T15:41:13;30.00;99.90
22781;DHT22;11557;50.884;4.322;2023-08-20T15:43:40;30.00;99.90